createdAt,value
2023-01-27T00:02:31.206Z,58.98
2023-01-27T00:05:15.979Z,58.46
2023-01-27T00:08:00.658Z,58.73
2023-01-27T00:10:45.433Z,58.64
2023-01-27T00:13:30.387Z,58.64
2023-01-27T00:16:15.020Z,58.80
2023-01-27T00:18:59.695Z,58.92
2023-01-27T00:21:44.415Z,59.92
2023-01-27T00:24:29.152Z,59.77
2023-01-27T00:27:13.791Z,59.67
2023-01-27T00:29:58.649Z,59.74
2023-01-27T00:32:43.339Z,59.50
2023-01-27T00:35:28.165Z,59.75
2023-01-27T00:38:12.805Z,60.21
2023-01-27T00:40:57.481Z,60.73
2023-01-27T00:43:42.182Z,61.71
2023-01-27T00:46:26.992Z,62.08
2023-01-27T00:49:11.808Z,63.10
2023-01-27T00:51:56.509Z,62.47
2023-01-27T00:54:41.170Z,61.68
2023-01-27T00:57:25.864Z,61.00
2023-01-27T01:00:10.715Z,60.10
2023-01-27T01:02:55.382Z,60.12
2023-01-27T01:05:40.133Z,59.81
2023-01-27T01:08:24.925Z,59.81
2023-01-27T01:11:09.563Z,59.74
2023-01-27T01:13:56.582Z,59.60
2023-01-27T01:16:41.752Z,59.54
2023-01-27T01:19:26.467Z,59.59
2023-01-27T01:22:11.135Z,59.50
2023-01-27T01:24:55.916Z,59.45
2023-01-27T01:27:40.562Z,59.07
2023-01-27T01:30:25.452Z,58.86
2023-01-27T01:33:10.189Z,58.78
2023-01-27T01:35:54.932Z,58.63
2023-01-27T01:38:39.702Z,58.28
2023-01-27T01:41:24.403Z,58.26
2023-01-27T01:44:09.105Z,58.52
2023-01-27T01:46:53.871Z,58.31
2023-01-27T01:49:38.697Z,58.38
2023-01-27T01:52:23.331Z,58.84
2023-01-27T01:55:07.937Z,58.65
2023-01-27T01:57:52.615Z,58.74
2023-01-27T02:00:37.304Z,58.73
2023-01-27T02:03:22.082Z,58.34
2023-01-27T02:06:06.747Z,58.25
2023-01-27T02:08:51.644Z,58.26
2023-01-27T02:11:36.800Z,58.26
2023-01-27T02:14:21.687Z,58.35
2023-01-27T02:17:06.459Z,58.38
2023-01-27T02:19:51.285Z,58.16
2023-01-27T02:22:35.946Z,58.43
2023-01-27T02:25:20.991Z,58.06
2023-01-27T02:28:05.718Z,57.97
2023-01-27T02:30:50.765Z,57.96
2023-01-27T02:33:35.993Z,58.17
2023-01-27T02:36:20.776Z,58.51
2023-01-27T02:39:05.498Z,58.37
2023-01-27T02:41:50.712Z,58.37
2023-01-27T02:44:35.398Z,58.26
2023-01-27T02:47:20.088Z,58.28
2023-01-27T02:50:04.883Z,58.41
2023-01-27T02:52:49.562Z,58.32
2023-01-27T02:55:34.590Z,58.37
2023-01-27T02:58:19.401Z,58.43
2023-01-27T03:01:04.195Z,57.83
2023-01-27T03:03:48.915Z,57.93
2023-01-27T03:06:33.621Z,57.74
2023-01-27T03:09:18.408Z,57.80
2023-01-27T03:12:03.210Z,58.04
2023-01-27T03:14:48.159Z,57.76
2023-01-27T03:17:32.821Z,57.64
2023-01-27T03:20:17.662Z,57.80
2023-01-27T03:23:02.345Z,57.92
2023-01-27T03:25:47.153Z,57.96
2023-01-27T03:28:31.839Z,57.90
2023-01-27T03:31:16.698Z,58.02
2023-01-27T03:34:01.846Z,58.56
2023-01-27T03:36:46.653Z,58.18
2023-01-27T03:39:31.464Z,58.58
2023-01-27T03:42:16.098Z,58.54
2023-01-27T03:45:00.894Z,58.64
2023-01-27T03:47:45.707Z,58.44
2023-01-27T03:50:30.497Z,58.52
2023-01-27T03:53:15.203Z,58.39
2023-01-27T03:55:59.932Z,58.37
2023-01-27T03:58:44.765Z,58.45
2023-01-27T04:01:29.943Z,58.36
2023-01-27T04:04:14.687Z,58.00
2023-01-27T04:06:59.296Z,57.72
2023-01-27T04:09:44.139Z,57.55
2023-01-27T04:12:28.840Z,57.42
2023-01-27T04:15:13.944Z,57.55
2023-01-27T04:17:58.833Z,57.51
2023-01-27T04:20:43.605Z,57.44
2023-01-27T04:23:28.345Z,57.50
2023-01-27T04:26:13.238Z,57.22
2023-01-27T04:28:57.983Z,57.53
2023-01-27T04:31:42.786Z,57.33
2023-01-27T04:34:28.208Z,57.09
2023-01-27T04:37:12.881Z,57.34
2023-01-27T04:39:57.759Z,57.80
2023-01-27T04:42:42.400Z,57.62
2023-01-27T04:45:27.251Z,57.37
2023-01-27T04:48:11.907Z,57.47
2023-01-27T04:50:56.746Z,57.49
2023-01-27T04:53:41.404Z,57.65
2023-01-27T04:56:26.291Z,57.61
2023-01-27T04:59:11.148Z,57.67
2023-01-27T05:01:56.001Z,57.41
2023-01-27T05:04:40.707Z,57.29
2023-01-27T05:07:25.381Z,57.24
2023-01-27T05:10:10.250Z,57.28
2023-01-27T05:12:54.976Z,57.33
2023-01-27T05:15:39.799Z,57.08
2023-01-27T05:18:24.930Z,57.01
2023-01-27T05:21:09.828Z,57.03
2023-01-27T05:23:54.658Z,56.87
2023-01-27T05:26:39.889Z,56.75
2023-01-27T05:29:24.622Z,57.16
2023-01-27T05:32:09.248Z,57.27
2023-01-27T05:34:54.010Z,57.36
2023-01-27T05:37:38.698Z,57.67
2023-01-27T05:40:23.377Z,57.60
2023-01-27T05:43:08.001Z,57.56
2023-01-27T05:45:52.782Z,57.22
2023-01-27T05:48:37.448Z,57.20
2023-01-27T05:51:22.258Z,57.44
2023-01-27T05:54:06.897Z,58.05
2023-01-27T05:56:51.639Z,58.10
2023-01-27T05:59:36.404Z,57.52
2023-01-27T06:02:22.763Z,56.85
2023-01-27T06:05:08.329Z,57.06
2023-01-27T06:07:53.016Z,56.36
2023-01-27T06:10:37.836Z,56.30
2023-01-27T06:13:22.632Z,56.36
2023-01-27T06:16:07.461Z,57.04
2023-01-27T06:18:52.355Z,57.16
2023-01-27T06:21:37.450Z,57.44
2023-01-27T06:24:22.307Z,58.74
2023-01-27T06:27:06.960Z,58.44
2023-01-27T06:29:51.736Z,58.96
2023-01-27T06:32:36.427Z,58.75
2023-01-27T06:35:21.421Z,57.94
2023-01-27T06:38:06.051Z,58.79
2023-01-27T06:40:50.948Z,59.56
2023-01-27T06:43:35.801Z,60.08
2023-01-27T06:46:20.596Z,60.70
2023-01-27T06:49:05.400Z,61.67
2023-01-27T06:51:50.075Z,61.74
2023-01-27T06:54:34.885Z,61.62
2023-01-27T06:57:19.604Z,60.62
2023-01-27T07:00:04.416Z,59.56
2023-01-27T07:02:49.128Z,59.48
2023-01-27T07:05:33.852Z,58.95
2023-01-27T07:08:18.529Z,58.54
2023-01-27T07:11:03.185Z,58.53
2023-01-27T07:13:48.016Z,58.08
2023-01-27T07:16:32.825Z,58.98
2023-01-27T07:19:17.657Z,60.19
2023-01-27T07:22:02.328Z,60.91
2023-01-27T07:24:47.100Z,60.93
2023-01-27T07:27:31.776Z,60.58
2023-01-27T07:30:16.696Z,60.16
2023-01-27T07:33:01.302Z,59.22
2023-01-27T07:35:46.093Z,58.98
2023-01-27T07:38:30.744Z,58.53
2023-01-27T07:41:15.624Z,58.06
2023-01-27T07:44:00.277Z,57.81
2023-01-27T07:46:45.056Z,58.10
2023-01-27T07:49:29.905Z,57.84
2023-01-27T07:52:14.592Z,57.75
2023-01-27T07:54:59.458Z,57.44
2023-01-27T07:57:44.020Z,57.46
2023-01-27T08:00:28.888Z,56.66
2023-01-27T08:03:13.678Z,57.61
2023-01-27T08:05:58.488Z,57.84
2023-01-27T08:08:43.106Z,58.32
2023-01-27T08:11:27.938Z,58.93
2023-01-27T08:14:12.685Z,58.50
2023-01-27T08:16:57.355Z,58.76
2023-01-27T08:19:42.149Z,57.94
2023-01-27T08:22:26.824Z,57.64
2023-01-27T08:25:11.620Z,56.94
2023-01-27T08:27:56.376Z,55.81
2023-01-27T08:30:41.309Z,55.36
2023-01-27T08:33:25.971Z,55.85
2023-01-27T08:36:10.830Z,56.36
2023-01-27T08:38:55.607Z,55.84
2023-01-27T08:41:40.539Z,55.45
2023-01-27T08:44:25.291Z,54.96
2023-01-27T08:47:10.024Z,54.32
2023-01-27T08:49:54.997Z,53.59
2023-01-27T08:52:40.265Z,53.06
2023-01-27T08:55:25.025Z,52.47
2023-01-27T08:58:09.725Z,51.51
2023-01-27T09:00:54.359Z,51.23
2023-01-27T09:03:39.060Z,49.92
2023-01-27T09:06:23.860Z,49.49
2023-01-27T09:09:11.145Z,49.78
2023-01-27T09:11:56.939Z,49.29
2023-01-27T09:14:41.704Z,48.86
2023-01-27T09:17:26.441Z,48.51
2023-01-27T09:20:11.546Z,48.61
2023-01-27T09:22:56.615Z,48.52
2023-01-27T09:25:41.262Z,48.54
2023-01-27T09:28:25.973Z,47.45
2023-01-27T09:31:10.718Z,48.40
2023-01-27T09:33:55.974Z,48.26
2023-01-27T09:36:41.779Z,48.53
2023-01-27T09:39:26.681Z,48.31
2023-01-27T09:42:13.695Z,48.19
2023-01-27T09:44:58.576Z,47.88
2023-01-27T09:47:43.367Z,48.15
2023-01-27T09:50:28.192Z,49.71
2023-01-27T09:53:13.049Z,51.13
2023-01-27T09:55:57.687Z,50.31
2023-01-27T09:58:42.513Z,51.66
2023-01-27T10:01:27.283Z,51.79
2023-01-27T10:04:12.126Z,50.48
2023-01-27T10:06:56.808Z,51.07
2023-01-27T10:09:41.693Z,52.08
2023-01-27T10:12:26.457Z,51.67
2023-01-27T10:15:11.181Z,52.41
2023-01-27T10:17:55.997Z,51.74
2023-01-27T10:20:40.797Z,51.06
2023-01-27T10:23:25.616Z,50.55
2023-01-27T10:26:10.315Z,50.27
2023-01-27T10:28:55.175Z,51.40
2023-01-27T10:31:39.906Z,51.68
2023-01-27T10:34:24.726Z,50.79
2023-01-27T10:37:09.417Z,51.25
2023-01-27T10:39:54.240Z,52.59
2023-01-27T10:42:38.951Z,52.20
2023-01-27T10:45:23.837Z,53.46
2023-01-27T10:48:09.050Z,54.52
2023-01-27T10:50:53.818Z,55.01
2023-01-27T10:53:38.701Z,55.09
2023-01-27T10:56:23.423Z,55.73
2023-01-27T10:59:08.210Z,55.55
2023-01-27T11:01:52.925Z,56.27
2023-01-27T11:04:37.667Z,56.61
2023-01-27T11:07:22.493Z,56.79
2023-01-27T11:10:07.335Z,56.87
2023-01-27T11:12:52.012Z,56.24
2023-01-27T11:15:36.854Z,56.55
2023-01-27T11:18:21.727Z,56.03
2023-01-27T11:21:06.425Z,56.43
2023-01-27T11:23:51.408Z,57.31
2023-01-27T11:26:36.107Z,56.61
2023-01-27T11:29:20.988Z,55.61
2023-01-27T11:32:05.755Z,55.93
2023-01-27T11:34:50.433Z,55.22
2023-01-27T11:37:35.184Z,55.73
2023-01-27T11:40:19.913Z,56.11
2023-01-27T11:43:04.695Z,56.06
2023-01-27T11:45:49.442Z,56.33
2023-01-27T11:48:34.127Z,56.42
2023-01-27T11:51:18.830Z,56.70
2023-01-27T11:54:03.653Z,56.79
2023-01-27T11:56:48.269Z,56.66
2023-01-27T11:59:33.121Z,55.89
2023-01-27T12:02:17.869Z,56.29
2023-01-27T12:05:02.734Z,55.72
2023-01-27T12:07:47.332Z,55.88
2023-01-27T12:10:32.171Z,55.05
2023-01-27T12:13:16.891Z,54.71
2023-01-27T12:16:01.770Z,53.64
2023-01-27T12:18:46.910Z,53.56
2023-01-27T12:21:31.627Z,53.77
2023-01-27T12:24:16.500Z,54.04
2023-01-27T12:27:01.271Z,54.82
2023-01-27T12:29:46.164Z,55.47
2023-01-27T12:32:30.949Z,55.33
2023-01-27T12:35:15.723Z,55.99
2023-01-27T12:38:00.409Z,56.00
2023-01-27T12:40:45.166Z,56.38
2023-01-27T12:43:30.028Z,56.66
2023-01-27T12:46:14.687Z,56.70
2023-01-27T12:48:59.510Z,56.56
2023-01-27T12:51:44.300Z,56.45
2023-01-27T12:54:29.039Z,55.76
2023-01-27T12:57:13.745Z,55.37
2023-01-27T12:59:58.502Z,54.81
2023-01-27T13:02:43.160Z,54.65
2023-01-27T13:05:28.093Z,54.95
2023-01-27T13:08:12.852Z,54.61
2023-01-27T13:10:57.695Z,54.47
2023-01-27T13:13:42.376Z,54.28
2023-01-27T13:16:27.222Z,54.42
2023-01-27T13:19:11.877Z,55.34
2023-01-27T13:21:56.715Z,55.07
2023-01-27T13:24:42.520Z,54.78
2023-01-27T13:27:27.264Z,53.94
2023-01-27T13:30:12.242Z,54.28
2023-01-27T13:32:57.112Z,54.04
2023-01-27T13:35:42.020Z,53.95
2023-01-27T13:38:26.771Z,53.03
2023-01-27T13:41:11.615Z,53.86
2023-01-27T13:43:56.316Z,53.50
2023-01-27T13:46:41.028Z,54.05
2023-01-27T13:49:25.735Z,53.79
2023-01-27T13:52:10.606Z,53.46
2023-01-27T13:54:55.346Z,53.66
2023-01-27T13:57:40.002Z,53.78
2023-01-27T14:00:24.917Z,54.11
2023-01-27T14:03:09.703Z,54.58
2023-01-27T14:05:54.515Z,54.35
2023-01-27T14:08:39.543Z,54.38
2023-01-27T14:11:24.187Z,54.29
2023-01-27T14:14:09.145Z,53.91
2023-01-27T14:16:53.842Z,53.92
2023-01-27T14:19:38.763Z,53.97
2023-01-27T14:22:23.369Z,53.95
2023-01-27T14:25:08.225Z,54.53
2023-01-27T14:27:52.959Z,53.52
2023-01-27T14:30:37.859Z,52.85
2023-01-27T14:33:22.605Z,53.21
2023-01-27T14:36:07.746Z,52.20
2023-01-27T14:38:52.496Z,52.30
2023-01-27T14:41:37.328Z,52.63
2023-01-27T14:44:22.073Z,52.33
2023-01-27T14:47:06.704Z,52.05
2023-01-27T14:49:51.506Z,51.50
2023-01-27T14:52:36.262Z,51.92
2023-01-27T14:55:21.163Z,52.69
2023-01-27T14:58:05.923Z,52.99
2023-01-27T15:00:50.811Z,52.77
2023-01-27T15:03:36.064Z,52.57
2023-01-27T15:06:20.736Z,52.56
2023-01-27T15:09:05.540Z,52.43
2023-01-27T15:11:50.180Z,52.27
2023-01-27T15:14:34.962Z,52.00
2023-01-27T15:17:19.564Z,52.56
2023-01-27T15:20:06.595Z,51.80
2023-01-27T15:22:52.318Z,52.33
2023-01-27T15:25:37.162Z,52.40
2023-01-27T15:28:21.924Z,52.32
2023-01-27T15:31:06.681Z,52.64
2023-01-27T15:33:51.347Z,52.41
2023-01-27T15:36:36.110Z,52.41
2023-01-27T15:39:25.927Z,52.55
2023-01-27T15:42:13.751Z,52.76
2023-01-27T15:44:58.389Z,52.85
2023-01-27T15:47:43.250Z,52.26
2023-01-27T15:50:28.012Z,51.87
2023-01-27T15:53:12.772Z,52.73
2023-01-27T15:55:57.838Z,52.88
2023-01-27T15:58:42.607Z,52.33
2023-01-27T16:01:27.366Z,52.42
2023-01-27T16:04:12.029Z,52.76
2023-01-27T16:06:56.766Z,53.04
2023-01-27T16:09:41.483Z,53.35
2023-01-27T16:12:26.222Z,53.51
2023-01-27T16:15:11.085Z,53.50
2023-01-27T16:17:56.158Z,53.37
2023-01-27T16:20:40.954Z,53.55
2023-01-27T16:23:25.806Z,54.01
2023-01-27T16:26:10.661Z,54.69
2023-01-27T16:28:55.381Z,54.86
2023-01-27T16:31:40.417Z,55.21
2023-01-27T16:34:25.114Z,55.54
2023-01-27T16:37:10.033Z,55.54
2023-01-27T16:39:54.698Z,55.95
2023-01-27T16:42:39.497Z,55.77
2023-01-27T16:45:24.208Z,56.62
2023-01-27T16:48:09.038Z,56.35
2023-01-27T16:50:53.866Z,56.57
2023-01-27T16:53:38.608Z,57.27
2023-01-27T16:56:23.470Z,57.65
2023-01-27T16:59:08.258Z,57.58
2023-01-27T17:01:53.059Z,57.37
2023-01-27T17:04:37.748Z,56.97
2023-01-27T17:07:22.656Z,56.90
2023-01-27T17:10:07.344Z,57.36
2023-01-27T17:12:52.135Z,57.76
2023-01-27T17:15:36.871Z,57.94
2023-01-27T17:18:21.573Z,57.42
2023-01-27T17:21:06.508Z,56.98
2023-01-27T17:23:51.153Z,56.67
2023-01-27T17:26:36.021Z,56.49
2023-01-27T17:29:20.738Z,56.64
2023-01-27T17:32:05.637Z,56.30
2023-01-27T17:34:50.707Z,56.42
2023-01-27T17:37:35.549Z,56.47
2023-01-27T17:40:20.243Z,56.18
2023-01-27T17:43:05.101Z,55.93
2023-01-27T17:45:49.962Z,55.57
2023-01-27T17:48:35.172Z,55.04
2023-01-27T17:51:20.215Z,55.43
2023-01-27T17:54:05.397Z,55.67
2023-01-27T17:56:50.161Z,55.61
2023-01-27T17:59:34.949Z,55.64
2023-01-27T18:02:20.370Z,56.24
2023-01-27T18:05:05.436Z,56.95
2023-01-27T18:07:50.195Z,57.03
2023-01-27T18:10:34.955Z,57.28
2023-01-27T18:13:19.634Z,57.69
2023-01-27T18:16:04.423Z,57.70
2023-01-27T18:18:49.150Z,56.79
2023-01-27T18:21:34.066Z,57.35
2023-01-27T18:24:18.721Z,57.32
2023-01-27T18:27:03.456Z,56.62
2023-01-27T18:29:48.103Z,56.46
2023-01-27T18:32:32.894Z,57.02
2023-01-27T18:35:17.539Z,57.17
2023-01-27T18:38:02.364Z,57.07
2023-01-27T18:40:47.108Z,56.55
2023-01-27T18:43:31.925Z,57.22
2023-01-27T18:46:16.698Z,57.47
2023-01-27T18:49:01.453Z,57.73
2023-01-27T18:51:46.232Z,57.03
2023-01-27T18:54:30.914Z,57.34
2023-01-27T18:57:15.798Z,56.53
2023-01-27T19:00:00.463Z,56.88
2023-01-27T19:02:45.254Z,56.92
2023-01-27T19:05:29.992Z,57.45
2023-01-27T19:08:14.752Z,57.48
2023-01-27T19:10:59.378Z,58.20
2023-01-27T19:13:44.305Z,58.00
2023-01-27T19:16:29.039Z,58.58
2023-01-27T19:19:13.849Z,57.46
2023-01-27T19:21:58.762Z,57.34
2023-01-27T19:24:43.423Z,57.23
2023-01-27T19:27:28.456Z,58.01
2023-01-27T19:30:13.135Z,57.49
2023-01-27T19:32:58.042Z,57.59
2023-01-27T19:35:42.875Z,57.58
2023-01-27T19:38:27.471Z,57.56
2023-01-27T19:41:12.184Z,57.11
2023-01-27T19:43:57.013Z,56.90
2023-01-27T19:46:41.937Z,57.04
2023-01-27T19:49:26.612Z,57.00
2023-01-27T19:52:11.356Z,57.77
2023-01-27T19:54:56.061Z,56.83
2023-01-27T19:57:40.880Z,56.43
2023-01-27T20:00:25.720Z,55.99
2023-01-27T20:03:10.464Z,55.77
2023-01-27T20:05:55.193Z,55.40
2023-01-27T20:08:39.895Z,55.67
2023-01-27T20:11:24.642Z,56.07
2023-01-27T20:14:09.427Z,55.37
2023-01-27T20:16:54.426Z,55.91
2023-01-27T20:19:39.145Z,56.02
2023-01-27T20:22:23.904Z,56.09
2023-01-27T20:25:08.604Z,56.69
2023-01-27T20:27:53.386Z,56.09
2023-01-27T20:30:38.054Z,56.13
2023-01-27T20:33:22.746Z,55.64
2023-01-27T20:36:07.507Z,55.44
2023-01-27T20:38:52.374Z,55.41
2023-01-27T20:41:37.276Z,55.09
2023-01-27T20:44:21.958Z,54.83
2023-01-27T20:47:06.796Z,54.94
2023-01-27T20:49:51.678Z,54.81
2023-01-27T20:52:36.539Z,54.50
2023-01-27T20:55:21.291Z,54.45
2023-01-27T20:58:06.066Z,54.74
2023-01-27T21:00:50.796Z,54.20
2023-01-27T21:03:35.547Z,53.83
2023-01-27T21:06:20.294Z,53.92
2023-01-27T21:09:05.530Z,53.55
2023-01-27T21:11:50.541Z,54.43
2023-01-27T21:14:35.208Z,54.71
2023-01-27T21:17:19.955Z,54.74
2023-01-27T21:20:04.665Z,55.07
2023-01-27T21:22:49.457Z,54.23
2023-01-27T21:25:34.225Z,53.78
2023-01-27T21:28:19.017Z,54.50
2023-01-27T21:31:03.885Z,54.61
2023-01-27T21:33:48.991Z,53.87
2023-01-27T21:36:33.793Z,54.09
2023-01-27T21:39:18.487Z,53.14
2023-01-27T21:42:03.233Z,54.32
2023-01-27T21:44:48.068Z,54.50
2023-01-27T21:47:32.927Z,54.57
2023-01-27T21:50:17.653Z,53.51
2023-01-27T21:53:02.455Z,53.32
2023-01-27T21:55:47.243Z,53.55
2023-01-27T21:58:32.218Z,54.38
2023-01-27T22:01:16.977Z,53.43
2023-01-27T22:04:01.792Z,54.29
2023-01-27T22:06:46.487Z,54.72
2023-01-27T22:09:31.378Z,55.30
2023-01-27T22:12:16.170Z,55.30
2023-01-27T22:15:01.001Z,55.02
2023-01-27T22:17:45.807Z,54.78
2023-01-27T22:20:30.587Z,55.34
2023-01-27T22:23:15.307Z,54.39
2023-01-27T22:26:00.022Z,54.40
2023-01-27T22:28:44.697Z,53.30
2023-01-27T22:31:29.568Z,53.49
2023-01-27T22:34:14.359Z,53.00
2023-01-27T22:36:59.033Z,52.48
2023-01-27T22:39:43.820Z,52.36
2023-01-27T22:42:28.663Z,52.06
2023-01-27T22:45:13.656Z,51.90
2023-01-27T22:47:58.733Z,51.89
2023-01-27T22:50:43.517Z,51.71
2023-01-27T22:53:28.319Z,51.74
2023-01-27T22:56:13.130Z,51.68
2023-01-27T22:58:58.112Z,51.97
2023-01-27T23:01:42.799Z,52.58
2023-01-27T23:04:27.729Z,52.84
2023-01-27T23:07:12.512Z,52.47
2023-01-27T23:09:57.223Z,51.96
2023-01-27T23:12:41.969Z,51.02
2023-01-27T23:15:26.722Z,50.80
2023-01-27T23:18:11.596Z,50.98
2023-01-27T23:20:56.304Z,51.54
2023-01-27T23:23:41.072Z,51.45
2023-01-27T23:26:25.804Z,51.78
2023-01-27T23:29:22.896Z,51.35
2023-01-27T23:32:08.890Z,50.95
2023-01-27T23:34:53.689Z,51.30
2023-01-27T23:37:38.348Z,51.16
2023-01-27T23:40:23.181Z,51.26
2023-01-27T23:43:08.033Z,51.88
2023-01-27T23:45:52.741Z,51.72
2023-01-27T23:48:37.522Z,52.03
2023-01-27T23:51:22.304Z,52.69
2023-01-27T23:54:07.128Z,52.18
2023-01-27T23:56:51.950Z,52.49
2023-01-27T23:59:36.799Z,51.95
